Time;durP1;ratioP1;P1;durP2;ratioP2;P2;SDS_P1;SDS_P2;PMS_P1;PMS_P2;Temp;Humidity;BMP_temperature;BMP_pressure;BME280_temperature;BME280_humidity;BME280_pressure;Samples;Min_cycle;Max_cycle;Signal;HPM_P1;HPM_P2
2022/03/17 00:00:04;;;;;;;21.42;16.92;;;;;;;15.38;48.29;101833.88;5055149;28;20375;-65
2022/03/17 00:02:31;;;;;;;22.83;18.67;;;;;;;15.37;48.28;101829.47;5037438;28;20666;-65
2022/03/17 00:04:58;;;;;;;20.33;15.82;;;;;;;15.35;48.64;101828.72;5055113;28;20372;-65
2022/03/17 00:07:24;;;;;;;22.38;17.00;;;;;;;15.33;48.30;101822.53;5054961;28;20406;-66
2022/03/17 00:09:54;;;;;;;23.55;18.45;;;;;;;15.33;48.59;101827.97;5054870;28;20128;-66
2022/03/17 00:12:21;;;;;;;23.58;17.83;;;;;;;15.31;48.82;101828.06;5054864;28;20202;-67
2022/03/17 00:14:53;;;;;;;22.13;17.73;;;;;;;15.30;49.03;101811.94;5046668;28;20046;-65
2022/03/17 00:17:19;;;;;;;22.95;17.42;;;;;;;15.27;49.03;101818.47;5034906;28;20051;-65
2022/03/17 00:19:46;;;;;;;22.65;18.38;;;;;;;15.26;48.99;101816.72;5017033;28;20069;-65
2022/03/17 00:22:16;;;;;;;22.75;17.80;;;;;;;15.25;48.67;101820.41;5017133;28;20037;-65
2022/03/17 00:24:43;;;;;;;24.02;17.73;;;;;;;15.25;48.78;101831.25;5034806;28;20124;-66
2022/03/17 00:27:10;;;;;;;24.83;17.65;;;;;;;15.25;48.88;101832.09;5034688;28;20042;-65
2022/03/17 00:29:38;;;;;;;23.08;17.88;;;;;;;15.25;48.86;101823.13;5034734;28;20103;-66
2022/03/17 00:32:06;;;;;;;24.13;17.65;;;;;;;15.25;48.83;101826.69;5016748;28;20124;-66
2022/03/17 00:35:35;;;;;;;23.83;17.60;;;;;;;15.23;48.73;101825.09;5035617;28;20112;-66
2022/03/17 00:37:25;;;;;;;22.73;17.08;;;;;;;15.20;48.91;101818.06;5034473;28;20041;-66
2022/03/17 00:39:53;;;;;;;22.90;17.63;;;;;;;15.18;48.88;101820.03;5016969;28;20035;-66
2022/03/17 00:42:21;;;;;;;22.35;18.23;;;;;;;15.19;49.11;101818.19;5034367;28;20045;-66
2022/03/17 00:44:47;;;;;;;22.80;17.67;;;;;;;15.18;48.90;101814.59;5044796;28;20095;-66
2022/03/17 00:47:14;;;;;;;22.63;17.88;;;;;;;15.16;49.24;101813.84;5054275;28;20490;-66
2022/03/17 00:49:41;;;;;;;21.60;17.92;;;;;;;15.16;48.90;101810.28;5054192;28;20128;-65
2022/03/17 00:52:11;;;;;;;24.92;17.95;;;;;;;15.15;49.13;101813.97;5054163;28;20051;-65
2022/03/17 00:54:39;;;;;;;22.77;18.40;;;;;;;15.16;49.43;101818.41;5011410;28;20045;-65
2022/03/17 00:57:06;;;;;;;24.40;18.23;;;;;;;15.15;49.15;101812.13;5033981;28;20120;-65
2022/03/17 00:59:33;;;;;;;24.90;19.25;;;;;;;15.17;49.27;101815.59;5034017;28;20033;-65
2022/03/17 01:02:00;;;;;;;23.42;19.10;;;;;;;15.18;49.30;101824.56;5016724;28;20044;-66
2022/03/17 01:04:27;;;;;;;24.30;18.85;;;;;;;15.17;49.31;101817.44;5041254;28;20052;-65
2022/03/17 01:06:53;;;;;;;23.85;18.65;;;;;;;15.14;49.20;101821.22;5054051;28;20041;-66
2022/03/17 01:09:20;;;;;;;23.75;17.50;;;;;;;15.12;49.12;101823.19;5035919;28;20558;-66
2022/03/17 01:11:47;;;;;;;24.20;18.70;;;;;;;15.09;49.51;101823.41;5053757;28;20487;-66
2022/03/17 01:14:13;;;;;;;24.77;18.85;;;;;;;15.07;49.15;101824.50;5034878;28;20048;-65
2022/03/17 01:16:41;;;;;;;23.55;18.00;;;;;;;15.04;49.51;101822.03;5015989;28;20051;-66
2022/03/17 01:19:07;;;;;;;29.00;19.45;;;;;;;15.02;49.26;101826.69;5016240;28;20144;-65
2022/03/17 01:21:34;;;;;;;24.10;18.48;;;;;;;15.03;49.45;101823.88;4996377;28;20077;-66
2022/03/17 01:24:01;;;;;;;24.60;18.55;;;;;;;15.05;49.66;101829.16;5002829;28;20633;-66
2022/03/17 01:26:31;;;;;;;23.48;17.23;;;;;;;15.07;49.36;101828.06;5053449;28;20033;-66
2022/03/17 01:28:58;;;;;;;25.88;18.10;;;;;;;15.06;49.32;101833.59;5035508;28;20135;-67
2022/03/17 01:31:25;;;;;;;22.60;18.00;;;;;;;15.04;49.65;101830.13;5053538;28;20045;-65
2022/03/17 01:33:53;;;;;;;21.77;18.15;;;;;;;15.01;49.53;101825.81;5047188;28;20033;-65
2022/03/17 01:36:20;;;;;;;25.13;18.80;;;;;;;15.01;49.75;101830.38;5033497;28;20052;-65
2022/03/17 01:38:47;;;;;;;24.95;19.25;;;;;;;14.97;49.63;101821.63;5033505;28;20403;-64
2022/03/17 01:41:14;;;;;;;28.48;18.98;;;;;;;14.96;49.86;101832.56;5033352;28;20041;-65
2022/03/17 01:43:41;;;;;;;25.88;18.05;;;;;;;14.94;50.09;101825.41;5037456;28;20032;-65
2022/03/17 01:46:09;;;;;;;24.80;18.17;;;;;;;14.96;49.66;101821.72;5035761;28;20406;-65
2022/03/17 01:48:36;;;;;;;24.27;19.38;;;;;;;14.98;49.72;101831.47;5053283;28;20098;-65
2022/03/17 01:51:03;;;;;;;23.25;18.25;;;;;;;15.00;50.00;101829.50;5053497;28;20056;-65
2022/03/17 01:53:30;;;;;;;26.13;18.92;;;;;;;15.01;50.00;101820.41;5057432;28;20213;-64
2022/03/17 01:55:59;;;;;;;26.63;19.08;;;;;;;15.02;49.95;101815.88;5055954;28;20045;-65
2022/03/17 01:58:26;;;;;;;25.05;19.02;;;;;;;15.01;50.03;101823.13;5035705;28;20045;-65
2022/03/17 02:00:53;;;;;;;25.73;18.55;;;;;;;15.04;50.12;101817.47;5052634;28;20041;-65
2022/03/17 02:03:20;;;;;;;24.33;18.52;;;;;;;15.06;50.07;101820.06;5039083;28;20120;-65
2022/03/17 02:05:47;;;;;;;25.50;19.38;;;;;;;15.09;50.25;101814.44;5052722;28;20041;-67
2022/03/17 02:08:16;;;;;;;29.02;19.02;;;;;;;15.10;49.94;101806.19;5052864;28;20120;-65
2022/03/17 02:13:28;;;;;;;22.67;19.05;;;;;;;15.14;50.07;101821.22;5033025;28;20045;-65
2022/03/17 02:15:55;;;;;;;26.67;18.77;;;;;;;15.17;50.28;101820.13;5033015;28;20041;-66
2022/03/17 02:18:23;;;;;;;24.77;18.98;;;;;;;15.17;50.26;101812.88;5015041;28;20059;-65
2022/03/17 02:20:49;;;;;;;25.80;18.65;;;;;;;15.18;50.30;101811.91;5049756;28;20047;-65
2022/03/17 02:26:04;;;;;;;24.73;17.38;;;;;;;15.17;50.55;101821.00;5044274;28;20037;-66
2022/03/17 02:28:32;;;;;;;25.17;17.67;;;;;;;15.23;50.14;101817.81;5033090;28;20693;-65
2022/03/17 02:31:01;;;;;;;26.05;18.13;;;;;;;15.28;50.45;101809.38;5032729;28;20050;-66
2022/03/17 02:33:28;;;;;;;27.05;18.25;;;;;;;15.31;50.19;101819.09;5015183;28;20045;-66
2022/03/17 02:35:55;;;;;;;23.73;18.30;;;;;;;15.34;50.48;101825.13;5032938;28;20124;-65
2022/03/17 02:38:22;;;;;;;25.27;19.05;;;;;;;15.38;50.40;101829.34;5042608;28;20376;-65
2022/03/17 02:40:52;;;;;;;24.77;18.58;;;;;;;15.41;50.46;101829.09;5034139;28;20040;-66
2022/03/17 02:43:19;;;;;;;24.77;17.92;;;;;;;15.44;50.55;101831.59;5052695;28;20483;-66
2022/03/17 02:45:47;;;;;;;28.05;18.10;;;;;;;15.47;50.54;101838.59;5034917;28;20482;-65
2022/03/17 02:48:16;;;;;;;27.50;17.67;;;;;;;15.47;50.43;101834.06;5052669;28;20102;-64
2022/03/17 02:50:43;;;;;;;25.77;17.63;;;;;;;15.48;50.37;101846.59;5036991;28;20132;-64
2022/03/17 02:53:11;;;;;;;23.85;17.33;;;;;;;15.50;50.72;101841.94;5032743;28;20041;-66
2022/03/17 02:55:40;;;;;;;24.85;18.02;;;;;;;15.53;50.93;101848.97;5032624;28;20042;-64
2022/03/17 02:58:09;;;;;;;29.95;19.27;;;;;;;15.53;50.96;101846.25;5032532;28;20056;-66
2022/03/17 03:00:37;;;;;;;25.27;18.27;;;;;;;15.53;50.69;101855.25;5032897;28;20073;-65
2022/03/17 03:03:07;;;;;;;27.08;19.75;;;;;;;15.55;51.03;101853.28;5048988;28;20041;-65
2022/03/17 03:05:34;;;;;;;27.67;19.27;;;;;;;15.55;51.01;101853.28;5052554;28;20091;-65
2022/03/17 03:08:02;;;;;;;26.08;19.58;;;;;;;15.55;51.32;101850.56;5052759;28;20037;-67
2022/03/17 03:10:29;;;;;;;25.17;18.17;;;;;;;15.57;51.14;101862.19;5052037;28;20490;-65
2022/03/17 03:12:56;;;;;;;27.45;18.58;;;;;;;15.61;51.39;101860.16;5055391;28;20120;-66
2022/03/17 03:15:23;;;;;;;26.55;19.60;;;;;;;15.61;51.39;101857.44;5037540;28;20041;-65
2022/03/17 03:17:49;;;;;;;27.38;20.08;;;;;;;15.63;51.52;101869.00;5055845;28;20052;-66
2022/03/17 03:20:16;;;;;;;28.92;20.02;;;;;;;15.64;51.95;101873.44;5055877;28;20052;-66
2022/03/17 03:22:43;;;;;;;31.67;20.17;;;;;;;15.63;51.94;101890.69;5038044;28;20132;-67
2022/03/17 03:25:09;;;;;;;26.98;19.60;;;;;;;15.64;51.99;101886.13;5041154;28;20399;-66
2022/03/17 03:27:39;;;;;;;29.30;20.88;;;;;;;15.66;52.03;101892.28;5018140;28;20164;-67
2022/03/17 03:30:09;;;;;;;27.67;19.67;;;;;;;15.67;52.45;101900.28;5036102;28;20107;-67
2022/03/17 03:32:37;;;;;;;30.02;19.85;;;;;;;15.68;52.09;101912.00;5035851;28;20124;-66
2022/03/17 03:37:22;;;;;;;31.77;21.73;;;;;;;15.64;52.52;101911.34;5035853;28;20033;-66
2022/03/17 03:37:52;;;;;;;28.70;20.42;;;;;;;15.57;52.55;101924.47;5035691;28;20124;-66
2022/03/17 03:40:18;;;;;;;31.65;21.88;;;;;;;15.54;53.22;101921.09;5035718;28;20068;-67
2022/03/17 03:42:45;;;;;;;31.67;21.92;;;;;;;15.52;52.97;101931.16;5035618;28;20041;-67
2022/03/17 03:45:11;;;;;;;28.98;21.77;;;;;;;15.49;53.66;101939.53;5035657;28;20045;-67
2022/03/17 03:47:38;;;;;;;36.30;23.48;;;;;;;15.46;53.44;101942.47;5017692;28;20038;-67
2022/03/17 03:50:05;;;;;;;32.55;21.83;;;;;;;15.41;53.93;101948.22;5035585;28;20041;-66
2022/03/17 03:52:31;;;;;;;30.73;19.30;;;;;;;15.38;53.82;101959.25;5001192;28;20046;-67
2022/03/17 03:54:58;;;;;;;27.17;18.73;;;;;;;15.35;54.39;101972.16;5035487;28;20489;-66
2022/03/17 03:57:24;;;;;;;24.50;17.10;;;;;;;15.31;54.55;101968.81;5035400;28;20047;-66
2022/03/17 03:59:51;;;;;;;20.20;15.27;;;;;;;15.29;54.60;101980.72;5035054;28;20055;-66
2022/03/17 04:02:18;;;;;;;20.20;14.48;;;;;;;15.25;54.56;101985.50;5035202;28;20060;-66
2022/03/17 04:04:45;;;;;;;15.60;12.10;;;;;;;15.21;54.73;101997.53;5035091;28;20042;-66
2022/03/17 04:07:12;;;;;;;13.57;11.07;;;;;;;15.16;55.12;101994.28;5035097;28;20037;-66
2022/03/17 04:09:41;;;;;;;13.57;10.63;;;;;;;15.11;55.01;102010.84;5034957;28;20042;-65
2022/03/17 04:12:09;;;;;;;16.08;12.32;;;;;;;15.02;55.25;102016.91;5017266;28;20419;-64
2022/03/17 04:14:36;;;;;;;16.50;13.18;;;;;;;14.94;54.92;102030.13;5032550;28;20080;-65
2022/03/17 04:17:04;;;;;;;17.60;14.45;;;;;;;14.87;55.34;102036.94;5054639;28;20120;-66
2022/03/17 04:19:31;;;;;;;18.58;13.93;;;;;;;14.82;55.36;102047.19;5036929;28;20124;-66
2022/03/17 04:22:28;;;;;;;17.83;13.95;;;;;;;14.73;55.38;102050.53;5019798;28;20103;-67
2022/03/17 04:24:54;;;;;;;;;;;;;;;14.65;55.35;102051.06;5055466;28;20479;-66
2022/03/17 04:27:21;;;;;;;9.93;7.95;;;;;;;14.58;54.99;102072.25;5054754;28;19920;-66
2022/03/17 04:29:47;;;;;;;12.50;8.52;;;;;;;14.47;55.11;102084.75;5036511;28;20063;-67
2022/03/17 04:32:14;;;;;;;12.48;8.15;;;;;;;14.37;55.27;102084.47;5054315;28;20036;-66
2022/03/17 04:34:42;;;;;;;10.70;8.23;;;;;;;14.27;55.23;102086.94;5054510;28;20130;-66
2022/03/17 04:37:09;;;;;;;12.40;8.15;;;;;;;14.21;55.12;102100.84;5036738;28;20041;-66
2022/03/17 04:39:35;;;;;;;11.93;8.98;;;;;;;14.15;55.28;102117.47;5036430;28;20469;-67
2022/03/17 04:42:02;;;;;;;13.10;8.77;;;;;;;14.11;55.28;102125.84;5036511;28;20044;-67
2022/03/17 04:44:32;;;;;;;13.80;9.88;;;;;;;14.09;55.42;102130.50;5054398;28;20372;-66
2022/03/17 04:46:59;;;;;;;15.32;10.60;;;;;;;14.04;55.53;102136.19;5054385;28;20033;-65
2022/03/17 04:49:25;;;;;;;18.73;11.65;;;;;;;14.02;55.58;102145.34;5041881;28;20038;-66
2022/03/17 04:51:52;;;;;;;20.27;13.27;;;;;;;13.99;55.90;102158.09;5034249;28;20051;-66
2022/03/17 04:54:18;;;;;;;20.30;13.60;;;;;;;13.95;55.80;102163.78;5034267;28;20075;-66
2022/03/17 04:56:45;;;;;;;20.48;14.10;;;;;;;13.89;55.85;102167.75;5034260;28;20041;-67
2022/03/17 04:59:12;;;;;;;22.10;13.15;;;;;;;13.87;55.80;102172.38;5034214;28;20049;-66
2022/03/17 05:01:38;;;;;;;19.52;12.40;;;;;;;13.86;56.08;102175.19;5034136;28;20077;-66
2022/03/17 05:04:05;;;;;;;19.95;12.35;;;;;;;13.84;56.09;102187.91;5034245;28;20041;-66
2022/03/17 05:06:32;;;;;;;18.52;12.82;;;;;;;13.79;56.01;102196.31;5034098;28;20072;-66
2022/03/17 05:08:59;;;;;;;15.73;11.70;;;;;;;13.78;56.08;102194.59;5034192;28;20125;-66
2022/03/17 05:11:26;;;;;;;17.67;12.13;;;;;;;13.76;56.58;102201.91;5034125;28;20384;-66
2022/03/17 05:13:52;;;;;;;15.38;11.35;;;;;;;13.73;56.61;102207.50;5033814;28;20044;-66
2022/03/17 05:16:19;;;;;;;16.95;10.65;;;;;;;13.71;56.49;102211.25;5016180;28;20094;-65
2022/03/17 05:18:47;;;;;;;14.43;10.68;;;;;;;13.69;56.76;102222.16;5033627;28;20056;-66
2022/03/17 05:21:14;;;;;;;15.50;11.57;;;;;;;13.66;56.54;102225.91;5016143;28;20060;-66
2022/03/17 05:23:44;;;;;;;17.23;11.38;;;;;;;13.64;56.88;102232.38;5017079;28;20073;-66
2022/03/17 05:26:10;;;;;;;15.98;11.40;;;;;;;13.61;56.61;102235.25;5033520;28;20411;-66
2022/03/17 05:28:37;;;;;;;20.60;13.02;;;;;;;13.58;56.64;102249.81;5033656;28;20047;-66
2022/03/17 05:31:03;;;;;;;19.17;13.32;;;;;;;13.55;56.85;102263.50;5033768;28;20140;-65
2022/03/17 05:33:31;;;;;;;21.65;13.48;;;;;;;13.53;57.12;102278.06;5015445;28;20415;-66
2022/03/17 05:35:57;;;;;;;16.50;10.85;;;;;;;13.48;56.95;102289.13;5033251;28;20053;-65
2022/03/17 05:38:24;;;;;;;21.00;10.30;;;;;;;13.43;56.97;102290.38;5013667;28;20045;-65
2022/03/17 05:40:51;;;;;;;17.75;8.35;;;;;;;13.39;56.96;102305.00;5013648;28;20041;-66
2022/03/17 05:43:18;;;;;;;16.73;7.45;;;;;;;13.32;56.81;102312.56;5014221;28;20584;-66
2022/03/17 05:45:44;;;;;;;13.20;6.47;;;;;;;13.25;56.44;102317.44;5042072;28;20075;-66
2022/03/17 05:48:11;;;;;;;13.32;6.68;;;;;;;13.18;56.31;102321.47;5053173;28;20494;-66
2022/03/17 05:50:41;;;;;;;14.25;6.93;;;;;;;13.15;56.33;102328.84;5035399;28;20124;-65
2022/03/17 05:53:09;;;;;;;11.75;5.10;;;;;;;13.13;56.56;102339.72;5053094;28;20068;-65
2022/03/17 05:55:36;;;;;;;15.23;5.45;;;;;;;13.10;56.23;102348.00;5053190;28;20049;-64
2022/03/17 05:58:04;;;;;;;10.63;5.65;;;;;;;13.06;56.36;102341.03;5035143;28;20041;-66
2022/03/17 06:00:32;;;;;;;15.95;5.72;;;;;;;13.02;56.40;102361.91;5052785;28;20483;-66
2022/03/17 06:02:59;;;;;;;12.20;5.57;;;;;;;13.01;56.05;102368.25;4996173;28;20041;-66
2022/03/17 06:05:27;;;;;;;17.02;6.00;;;;;;;13.00;56.28;102371.06;5013618;28;20056;-66
2022/03/17 06:07:59;;;;;;;10.40;5.32;;;;;;;12.97;56.29;102377.50;5033002;28;20479;-66
2022/03/17 06:10:32;;;;;;;8.93;5.32;;;;;;;12.97;56.09;102382.00;5033038;28;20103;-67
2022/03/17 06:13:03;;;;;;;15.30;4.90;;;;;;;12.99;56.21;102388.19;5033629;28;20543;-66
2022/03/17 06:15:31;;;;;;;13.25;5.45;;;;;;;12.98;56.27;102391.84;5047606;28;20127;-67
2022/03/17 06:17:59;;;;;;;11.35;4.47;;;;;;;12.93;56.02;102412.81;5035016;28;20561;-66
2022/03/17 06:20:29;;;;;;;10.00;4.15;;;;;;;12.89;56.09;102412.09;5052971;28;20059;-66
2022/03/17 06:22:58;;;;;;;7.78;4.00;;;;;;;12.84;55.83;102419.59;5052953;28;20405;-66
2022/03/17 06:25:28;;;;;;;8.38;3.13;;;;;;;12.79;55.88;102429.75;5053387;28;20140;-65
2022/03/17 06:27:55;;;;;;;13.20;3.80;;;;;;;12.77;55.47;102439.75;4979770;28;20073;-66
2022/03/17 06:30:24;;;;;;;7.18;3.28;;;;;;;12.74;55.90;102439.91;5013390;28;20121;-66
2022/03/17 06:32:52;;;;;;;9.02;3.65;;;;;;;12.72;55.97;102442.69;5024729;28;20095;-66
2022/03/17 06:35:21;;;;;;;9.50;3.92;;;;;;;12.72;55.55;102447.22;5047221;28;20071;-66
2022/03/17 06:37:53;;;;;;;10.43;3.08;;;;;;;12.72;55.74;102448.09;5041674;28;20049;-66
2022/03/17 06:40:22;;;;;;;9.50;2.72;;;;;;;12.71;55.62;102462.53;5032921;28;20106;-66
2022/03/17 06:42:50;;;;;;;7.18;2.55;;;;;;;12.69;55.65;102472.53;5032623;28;20095;-65
2022/03/17 06:45:17;;;;;;;9.23;2.90;;;;;;;12.69;55.60;102471.66;5049075;28;20073;-66
2022/03/17 06:47:44;;;;;;;5.60;2.08;;;;;;;12.69;55.49;102472.53;5042794;28;20037;-65
2022/03/17 06:50:12;;;;;;;8.65;2.65;;;;;;;12.69;55.54;102474.34;5042108;28;20109;-66
2022/03/17 06:52:39;;;;;;;5.93;2.60;;;;;;;12.69;55.24;102487.81;5001602;28;20046;-66
2022/03/17 06:55:07;;;;;;;8.93;2.42;;;;;;;12.67;55.27;102487.03;5019420;28;20045;-65
2022/03/17 06:57:33;;;;;;;6.65;2.22;;;;;;;12.66;55.15;102496.06;5036244;28;20052;-66
2022/03/17 07:00:04;;;;;;;7.07;2.67;;;;;;;12.67;55.19;102504.06;5036300;28;20091;-67
2022/03/17 07:02:30;;;;;;;7.43;2.72;;;;;;;12.69;55.20;102509.38;5036321;28;20561;-65
2022/03/17 07:04:57;;;;;;;8.13;2.58;;;;;;;12.71;55.06;102508.34;5019005;28;20062;-65
2022/03/17 07:07:24;;;;;;;4.82;1.98;;;;;;;12.72;55.21;102512.78;5042227;28;20048;-67
2022/03/17 07:09:51;;;;;;;8.40;2.78;;;;;;;12.75;55.03;102521.66;5055686;28;20132;-65
2022/03/17 07:12:17;;;;;;;5.88;2.15;;;;;;;12.73;55.10;102519.06;5018751;28;20053;-67
2022/03/17 07:14:44;;;;;;;6.18;2.10;;;;;;;12.72;55.00;102530.78;5036082;28;20552;-66
2022/03/17 07:17:10;;;;;;;5.53;2.70;;;;;;;12.72;54.95;102537.06;5022109;28;20049;-66
2022/03/17 07:19:37;;;;;;;6.88;2.55;;;;;;;12.73;55.07;102546.88;5035941;28;20077;-66
2022/03/17 07:22:04;;;;;;;7.25;2.45;;;;;;;12.76;54.97;102553.06;5043701;28;20127;-66
2022/03/17 07:24:31;;;;;;;9.32;2.53;;;;;;;12.75;54.71;102552.19;5041718;28;20049;-66
2022/03/17 07:26:59;;;;;;;7.45;1.98;;;;;;;12.74;55.02;102569.31;5052343;28;20045;-67
2022/03/17 07:29:28;;;;;;;11.25;2.20;;;;;;;12.73;54.77;102562.19;5039049;28;20553;-67
2022/03/17 07:31:56;;;;;;;6.38;2.35;;;;;;;12.72;54.85;102579.31;5018042;28;20492;-67
2022/03/17 07:34:24;;;;;;;6.60;2.20;;;;;;;12.69;54.77;102584.88;5037484;28;20056;-68
2022/03/17 07:36:51;;;;;;;6.57;1.98;;;;;;;12.68;54.74;102588.50;5054004;28;20079;-67
2022/03/17 07:39:18;;;;;;;7.40;2.22;;;;;;;12.66;54.90;102593.13;5046472;28;20396;-67
2022/03/17 07:41:45;;;;;;;9.73;2.22;;;;;;;12.64;55.03;102593.19;5048424;28;20051;-67
2022/03/17 07:44:13;;;;;;;7.45;2.15;;;;;;;12.64;55.13;102606.66;5041432;28;20038;-67
2022/03/17 07:46:58;;;;;;;6.10;2.67;;;;;;;12.65;55.40;102610.25;5021221;28;20514;-67
2022/03/17 07:49:38;;;;;;;10.27;2.60;;;;;;;12.64;55.47;102612.06;5002551;28;20103;-67
2022/03/17 07:52:05;;;;;;;9.80;2.95;;;;;;;12.66;55.31;102623.63;5035561;28;20076;-68
2022/03/17 07:54:33;;;;;;;9.20;2.30;;;;;;;12.67;55.31;102627.19;5037514;28;20042;-67
2022/03/17 07:57:01;;;;;;;9.05;2.38;;;;;;;12.68;55.56;102629.81;5053517;28;20095;-67
2022/03/17 07:59:28;;;;;;;10.15;2.30;;;;;;;12.72;55.53;102631.41;5018761;28;20064;-68
2022/03/17 08:01:55;;;;;;;12.93;2.50;;;;;;;12.74;55.56;102631.31;5019125;28;20041;-67
2022/03/17 08:04:22;;;;;;;9.48;2.30;;;;;;;12.77;55.42;102639.25;5035040;28;20045;-68
2022/03/17 08:06:53;;;;;;;7.05;2.20;;;;;;;12.82;55.31;102649.81;5035550;28;20453;-67
2022/03/17 08:09:20;;;;;;;10.50;2.80;;;;;;;12.84;55.42;102651.47;5035163;28;20482;-67
2022/03/17 08:11:48;;;;;;;11.05;2.50;;;;;;;12.85;55.41;102664.00;5036881;28;20041;-68
2022/03/17 08:14:16;;;;;;;10.00;2.90;;;;;;;12.86;55.38;102659.47;5035092;28;20048;-68
2022/03/17 08:16:43;;;;;;;8.70;2.40;;;;;;;12.89;55.21;102667.41;5018549;28;20124;-67
2022/03/17 08:19:11;;;;;;;3.88;1.77;;;;;;;12.88;55.25;102671.06;5035658;28;20502;-67
2022/03/17 08:21:39;;;;;;;5.90;2.28;;;;;;;12.85;55.03;102674.78;5034942;28;20551;-67
2022/03/17 08:24:07;;;;;;;9.38;2.00;;;;;;;12.86;55.09;102686.44;5036034;28;20045;-67
2022/03/17 08:26:34;;;;;;;9.93;2.60;;;;;;;12.88;55.08;102684.53;5022982;28;20092;-68
2022/03/17 08:29:01;;;;;;;9.93;2.25;;;;;;;12.89;55.22;102691.66;5016650;28;20044;-67
2022/03/17 08:31:28;;;;;;;13.27;2.83;;;;;;;12.91;55.11;102700.56;5024430;28;20511;-67
2022/03/17 08:33:57;;;;;;;9.68;2.83;;;;;;;12.91;55.00;102697.88;5026431;28;20136;-67
2022/03/17 08:36:24;;;;;;;12.63;2.25;;;;;;;12.94;54.79;102708.50;5014745;28;20068;-67
2022/03/17 08:38:51;;;;;;;7.55;2.42;;;;;;;12.96;54.94;102715.56;5014704;28;20496;-68
2022/03/17 08:41:20;;;;;;;8.60;2.45;;;;;;;12.99;55.38;102711.81;5015830;28;20034;-67
2022/03/17 08:43:47;;;;;;;9.05;2.47;;;;;;;13.01;55.10;102716.19;5015164;28;20491;-67
2022/03/17 08:51:46;;;;;;;13.90;3.00;;;;;;;13.05;55.12;102738.47;5017364;28;20355;-67
2022/03/17 08:54:13;;;;;;;12.68;2.80;;;;;;;13.05;54.91;102743.88;5017360;28;20042;-67
2022/03/17 08:56:40;;;;;;;7.97;2.20;;;;;;;13.03;54.55;102751.16;5014829;28;20408;-67
2022/03/17 08:59:06;;;;;;;10.52;2.00;;;;;;;13.01;54.47;102755.78;5015492;28;20072;-67
2022/03/17 09:01:33;;;;;;;9.27;2.20;;;;;;;13.00;54.71;102752.19;5013275;28;20041;-67
2022/03/17 09:04:02;;;;;;;15.98;2.50;;;;;;;13.03;54.60;102761.97;5033779;28;20048;-67
2022/03/17 09:06:28;;;;;;;7.55;2.88;;;;;;;13.06;54.36;102769.91;5034085;28;20037;-68
2022/03/17 09:08:55;;;;;;;9.30;2.45;;;;;;;13.11;54.35;102761.56;5032897;28;20506;-68
2022/03/17 09:11:21;;;;;;;11.52;3.47;;;;;;;13.14;54.08;102766.81;5034334;28;20391;-67
2022/03/17 09:13:49;;;;;;;16.67;3.13;;;;;;;13.19;54.17;102771.03;5033638;28;20042;-67
2022/03/17 09:16:17;;;;;;;12.15;2.58;;;;;;;13.27;53.93;102767.94;5016089;28;20042;-67
2022/03/17 09:18:44;;;;;;;11.30;2.70;;;;;;;13.33;54.17;102782.00;5031120;28;20563;-68
2022/03/17 09:21:11;;;;;;;9.43;2.40;;;;;;;13.40;53.90;102784.41;5000070;28;20034;-68
2022/03/17 09:23:38;;;;;;;10.93;2.97;;;;;;;13.48;53.66;102793.84;5020382;28;20060;-68
2022/03/17 09:26:05;;;;;;;10.18;2.78;;;;;;;13.53;53.41;102785.50;5019547;28;20108;-67
2022/03/17 09:28:31;;;;;;;8.93;2.38;;;;;;;13.55;52.98;102789.00;5013431;28;20080;-69
2022/03/17 09:30:58;;;;;;;11.05;2.35;;;;;;;13.55;52.49;102794.41;5013880;28;20480;-68
2022/03/17 09:33:25;;;;;;;14.63;2.95;;;;;;;13.56;52.30;102794.31;5013814;28;20504;-68
2022/03/17 09:35:53;;;;;;;7.93;2.88;;;;;;;13.59;52.38;102802.25;4997026;28;20473;-68
2022/03/17 09:38:22;;;;;;;12.90;3.17;;;;;;;13.65;52.61;102804.63;5013580;28;20506;-68
2022/03/17 09:40:48;;;;;;;10.07;2.78;;;;;;;13.71;52.42;102810.66;5015784;28;20073;-68
2022/03/17 09:43:18;;;;;;;9.23;2.78;;;;;;;13.75;52.09;102825.75;5016008;28;20077;-82
2022/03/17 09:45:49;;;;;;;16.38;2.50;;;;;;;13.77;52.05;102835.50;5006343;28;20052;-69
2022/03/17 09:48:17;;;;;;;9.40;2.80;;;;;;;13.80;51.88;102829.06;5013849;28;20112;-67
2022/03/17 09:50:46;;;;;;;9.10;2.45;;;;;;;13.81;51.66;102834.41;4996159;28;20129;-65
2022/03/17 09:53:13;;;;;;;6.38;1.50;;;;;;;13.81;51.36;102836.22;5013489;28;20400;-65
2022/03/17 09:55:43;;;;;;;12.80;2.10;;;;;;;13.79;51.15;102844.41;5012846;28;20141;-65
2022/03/17 09:58:11;;;;;;;12.88;2.10;;;;;;;13.78;50.74;102842.66;5013420;28;20046;-66
2022/03/17 10:00:52;;;;;;;10.15;2.08;;;;;;;13.78;50.71;102841.78;5013150;28;20137;-66
2022/03/17 10:03:22;;;;;;;9.38;1.90;;;;;;;13.79;50.59;102851.63;5013665;28;20497;-66
2022/03/17 10:05:50;;;;;;;11.93;2.22;;;;;;;13.80;50.44;102850.69;5013359;28;20034;-66
2022/03/17 10:08:20;;;;;;;12.95;2.10;;;;;;;13.83;50.40;102856.78;5013212;28;20104;-65
2022/03/17 10:10:48;;;;;;;8.70;2.22;;;;;;;13.86;50.17;102862.03;5013531;28;20076;-65
2022/03/17 10:13:20;;;;;;;6.10;1.60;;;;;;;13.88;50.30;102865.53;5013259;28;20484;-66
2022/03/17 10:16:07;;;;;;;7.55;1.67;;;;;;;13.91;50.15;102883.41;5013363;28;20104;-64
2022/03/17 10:18:37;;;;;;;11.35;2.50;;;;;;;13.93;49.78;102885.06;5017536;28;20132;-66
2022/03/17 10:21:18;;;;;;;9.85;2.22;;;;;;;13.94;49.78;102886.81;5029305;28;20046;-68
2022/03/17 10:23:46;;;;;;;8.73;1.85;;;;;;;13.95;49.75;102882.28;5033424;28;20046;-68
2022/03/17 10:26:35;;;;;;;8.95;2.10;;;;;;;13.94;49.62;102899.44;5034527;28;20041;-68
2022/03/17 10:29:22;;;;;;;8.85;1.52;;;;;;;13.96;49.43;102905.63;5039890;28;20052;-68
2022/03/17 10:31:51;;;;;;;8.80;1.75;;;;;;;14.03;49.47;102900.78;5036760;28;20046;-68
2022/03/17 10:34:23;;;;;;;7.03;1.85;;;;;;;14.07;49.39;102905.06;5037556;28;20446;-68
2022/03/17 10:36:50;;;;;;;10.13;2.30;;;;;;;14.11;49.47;102903.94;5052962;28;20037;-68
2022/03/17 10:39:17;;;;;;;18.00;2.42;;;;;;;14.13;49.30;102907.47;5053217;28;20136;-66
2022/03/17 10:41:46;;;;;;;5.32;2.05;;;;;;;14.18;49.38;102916.22;5041242;28;20499;-65
2022/03/17 10:44:18;;;;;;;7.60;2.05;;;;;;;14.23;49.17;102914.13;5036925;28;20044;-66
2022/03/17 10:46:55;;;;;;;7.30;1.90;;;;;;;14.27;48.86;102926.53;5026833;28;20049;-65
2022/03/17 10:49:22;;;;;;;6.68;1.98;;;;;;;14.29;48.90;102936.31;5035115;28;20084;-66
2022/03/17 10:51:54;;;;;;;9.02;2.08;;;;;;;14.27;48.57;102938.22;5041004;28;20385;-66
2022/03/17 10:54:22;;;;;;;10.93;1.73;;;;;;;14.30;48.85;102946.16;5037449;28;20041;-65
2022/03/17 10:57:09;;;;;;;7.15;2.08;;;;;;;14.30;48.66;102948.00;5043277;28;20041;-66
2022/03/17 10:59:43;;;;;;;6.55;1.88;;;;;;;14.30;48.62;102950.69;5035785;28;20140;-68
2022/03/17 11:02:12;;;;;;;8.80;1.75;;;;;;;14.28;48.03;102961.59;5026277;28;20104;-68
2022/03/17 11:04:41;;;;;;;12.05;2.00;;;;;;;14.25;48.17;102963.56;5051130;28;20102;-68
2022/03/17 11:07:13;;;;;;;6.75;1.35;;;;;;;14.23;47.98;102966.34;5036047;28;20055;-68
2022/03/17 11:09:45;;;;;;;7.47;2.08;;;;;;;14.23;47.87;102960.09;5037238;28;20089;-68
2022/03/17 11:12:17;;;;;;;7.13;1.92;;;;;;;14.23;48.08;102973.59;5043098;28;20069;-69
2022/03/17 11:14:49;;;;;;;4.30;1.52;;;;;;;14.24;48.06;102983.44;5019739;28;20046;-68
2022/03/17 11:17:35;;;;;;;9.45;1.50;;;;;;;14.25;47.60;102985.19;5035807;28;20037;-69
2022/03/17 11:20:05;;;;;;;4.38;1.58;;;;;;;14.29;47.60;102995.75;5020491;28;20052;-68
2022/03/17 11:22:33;;;;;;;6.72;1.73;;;;;;;14.32;47.43;102994.72;5047526;28;20043;-69
2022/03/17 11:25:23;;;;;;;4.28;1.83;;;;;;;14.34;47.38;103000.06;5037892;28;20072;-69
2022/03/17 11:27:56;;;;;;;7.75;1.63;;;;;;;14.38;47.41;103002.50;5038803;28;20092;-67
2022/03/17 11:30:29;;;;;;;5.28;2.00;;;;;;;14.38;46.91;102999.81;5035609;28;20044;-68
2022/03/17 11:32:58;;;;;;;4.30;1.55;;;;;;;14.40;47.27;103011.41;5035483;28;20049;-69